createdAt,value
2018-12-30T00:00:23.882Z,0.00
2018-12-30T00:01:23.861Z,0.00
2018-12-30T00:02:24.007Z,0.00
2018-12-30T00:03:23.800Z,0.00
2018-12-30T00:04:23.790Z,0.00
2018-12-30T00:05:23.778Z,0.00
2018-12-30T00:06:23.783Z,0.00
2018-12-30T00:07:23.790Z,0.00
2018-12-30T00:08:23.737Z,0.00
2018-12-30T00:09:23.729Z,0.00
2018-12-30T00:10:23.721Z,0.00
2018-12-30T00:11:23.725Z,0.00
2018-12-30T00:12:23.745Z,0.00
2018-12-30T00:13:23.694Z,0.00
2018-12-30T00:14:23.700Z,0.00
2018-12-30T00:15:23.700Z,0.00
2018-12-30T00:16:23.732Z,0.00
2018-12-30T00:17:23.687Z,0.00
2018-12-30T00:18:23.660Z,0.00
2018-12-30T00:19:23.616Z,0.00
2018-12-30T00:20:23.607Z,0.00
2018-12-30T00:21:23.637Z,0.00
2018-12-30T00:22:23.646Z,0.00
2018-12-30T00:23:23.643Z,0.00
2018-12-30T00:24:23.587Z,0.00
2018-12-30T00:25:23.557Z,0.00
2018-12-30T00:26:23.620Z,0.00
2018-12-30T00:27:23.543Z,0.00
2018-12-30T00:28:23.522Z,0.00
2018-12-30T00:29:23.555Z,0.00
2018-12-30T00:30:23.499Z,0.00
2018-12-30T00:31:23.487Z,0.00
2018-12-30T00:32:23.469Z,0.00
2018-12-30T00:33:23.484Z,0.00
2018-12-30T00:34:23.449Z,0.00
2018-12-30T00:35:23.455Z,0.00
2018-12-30T00:36:23.431Z,0.00
2018-12-30T00:37:23.419Z,0.00
2018-12-30T00:38:23.411Z,0.00
2018-12-30T00:39:23.394Z,0.00
2018-12-30T00:40:23.403Z,0.00
2018-12-30T00:41:23.443Z,0.00
2018-12-30T00:42:23.366Z,0.00
2018-12-30T00:43:23.355Z,0.00
2018-12-30T00:44:23.346Z,0.00
2018-12-30T00:45:23.335Z,0.00
2018-12-30T00:46:23.355Z,0.00
2018-12-30T00:47:23.329Z,0.00
2018-12-30T00:48:23.300Z,0.00
2018-12-30T00:49:23.280Z,0.00
2018-12-30T00:50:23.275Z,0.00
2018-12-30T00:51:23.263Z,0.00
2018-12-30T00:52:23.275Z,0.00
2018-12-30T00:53:23.275Z,0.00
2018-12-30T00:54:23.234Z,0.00
2018-12-30T00:55:23.235Z,0.00
2018-12-30T00:56:23.204Z,0.00
2018-12-30T00:57:23.199Z,0.00
2018-12-30T00:58:23.221Z,0.00
2018-12-30T00:59:23.176Z,0.00
2018-12-30T01:00:23.179Z,0.00
2018-12-30T01:01:23.150Z,0.00
2018-12-30T01:02:23.147Z,0.00
2018-12-30T01:03:23.136Z,0.00
2018-12-30T01:04:23.128Z,0.00
2018-12-30T01:05:23.113Z,0.00
2018-12-30T01:06:23.093Z,0.00
2018-12-30T01:07:23.085Z,0.00
2018-12-30T01:08:23.081Z,0.00
2018-12-30T01:09:23.128Z,0.00
2018-12-30T01:10:23.093Z,0.00
2018-12-30T01:11:23.044Z,0.00
2018-12-30T01:12:23.065Z,0.00
2018-12-30T01:13:23.076Z,0.00
2018-12-30T01:14:23.010Z,0.00
2018-12-30T01:15:23.008Z,0.00
2018-12-30T01:16:22.989Z,0.00
2018-12-30T01:17:22.990Z,0.00
2018-12-30T01:18:22.969Z,0.00
2018-12-30T01:19:22.965Z,0.00
2018-12-30T01:20:22.960Z,0.00
2018-12-30T01:21:25.162Z,0.00
2018-12-30T01:22:22.938Z,0.00
2018-12-30T01:23:22.922Z,0.00
2018-12-30T01:24:22.923Z,0.00
2018-12-30T01:25:22.887Z,0.00
2018-12-30T01:26:22.877Z,0.00
2018-12-30T01:27:22.930Z,0.00
2018-12-30T01:28:22.902Z,0.00
2018-12-30T01:29:22.854Z,0.00
2018-12-30T01:30:22.842Z,0.00
2018-12-30T01:31:22.815Z,0.00
2018-12-30T01:32:22.825Z,0.00
2018-12-30T01:33:22.803Z,0.00
2018-12-30T01:34:22.806Z,0.00
2018-12-30T01:35:22.790Z,0.00
2018-12-30T01:36:22.756Z,0.00
2018-12-30T01:37:22.754Z,0.00
2018-12-30T01:38:22.758Z,0.00
2018-12-30T01:39:22.748Z,0.00
2018-12-30T01:40:22.722Z,0.00
2018-12-30T01:41:22.703Z,0.00
2018-12-30T01:42:22.700Z,0.00
2018-12-30T01:43:22.679Z,0.00
2018-12-30T01:44:22.733Z,0.00
2018-12-30T01:45:22.660Z,0.00
2018-12-30T01:46:22.677Z,0.00
2018-12-30T01:47:22.641Z,0.00
2018-12-30T01:48:22.621Z,0.00
2018-12-30T01:49:22.627Z,0.00
2018-12-30T01:50:22.615Z,0.00
2018-12-30T01:51:22.590Z,0.00
2018-12-30T01:52:22.594Z,0.00
2018-12-30T01:53:22.575Z,0.00
2018-12-30T01:54:22.555Z,0.00
2018-12-30T01:55:22.691Z,0.00
2018-12-30T01:56:22.541Z,0.00
2018-12-30T01:57:22.519Z,0.00
2018-12-30T01:58:22.539Z,0.00
2018-12-30T01:59:22.496Z,0.00
2018-12-30T02:00:22.485Z,0.00
2018-12-30T02:01:22.520Z,0.00
2018-12-30T02:02:22.468Z,0.00
2018-12-30T02:03:22.480Z,0.00
2018-12-30T02:04:22.443Z,0.00
2018-12-30T02:05:22.434Z,0.00
2018-12-30T02:06:22.545Z,0.00
2018-12-30T02:07:22.486Z,0.00
2018-12-30T02:08:22.396Z,0.00
2018-12-30T02:09:22.403Z,0.00
2018-12-30T02:10:22.400Z,0.00
2018-12-30T02:11:22.367Z,0.00
2018-12-30T02:12:22.379Z,0.00
2018-12-30T02:13:22.392Z,0.00
2018-12-30T02:14:22.348Z,0.00
2018-12-30T02:15:22.319Z,0.00
2018-12-30T02:16:22.314Z,0.00
2018-12-30T02:17:22.336Z,0.00
2018-12-30T02:18:22.360Z,0.00
2018-12-30T02:19:22.277Z,0.00
2018-12-30T02:20:22.265Z,0.00
2018-12-30T02:21:22.258Z,0.00
2018-12-30T02:22:22.264Z,0.00
2018-12-30T02:23:22.324Z,0.00
2018-12-30T02:24:22.243Z,0.00
2018-12-30T02:25:22.216Z,0.00
2018-12-30T02:26:22.214Z,0.00
2018-12-30T02:27:22.189Z,0.00
2018-12-30T02:28:22.174Z,0.00
2018-12-30T02:29:22.170Z,0.00
2018-12-30T02:30:22.192Z,0.00
2018-12-30T02:31:22.143Z,0.00
2018-12-30T02:32:22.156Z,0.00
2018-12-30T02:33:22.148Z,0.00
2018-12-30T02:34:22.107Z,0.00
2018-12-30T02:35:22.131Z,0.00
2018-12-30T02:36:22.093Z,0.00
2018-12-30T02:37:22.105Z,0.00
2018-12-30T02:38:22.071Z,0.00
2018-12-30T02:39:22.092Z,0.00
2018-12-30T02:40:22.077Z,0.00
2018-12-30T02:41:22.052Z,0.00
2018-12-30T02:42:22.021Z,0.00
2018-12-30T02:43:22.035Z,0.00
2018-12-30T02:44:22.008Z,0.00
2018-12-30T02:45:21.999Z,0.00
2018-12-30T02:46:21.993Z,0.00
2018-12-30T02:47:21.976Z,0.00
2018-12-30T02:48:21.959Z,0.00
2018-12-30T02:49:21.965Z,0.00
2018-12-30T02:50:21.927Z,0.00
2018-12-30T02:51:21.955Z,0.00
2018-12-30T02:52:21.942Z,0.00
2018-12-30T02:53:21.921Z,0.00
2018-12-30T02:54:21.938Z,0.00
2018-12-30T02:55:21.870Z,0.00
2018-12-30T02:56:21.872Z,0.00
2018-12-30T02:57:21.945Z,0.00
2018-12-30T02:58:21.862Z,0.00
2018-12-30T02:59:21.861Z,0.00
2018-12-30T03:00:21.816Z,0.00
2018-12-30T03:01:21.824Z,0.00
2018-12-30T03:02:21.798Z,0.00
2018-12-30T03:03:21.833Z,0.00
2018-12-30T03:04:21.849Z,0.00
2018-12-30T03:05:21.790Z,0.00
2018-12-30T03:06:21.779Z,0.00
2018-12-30T03:07:21.773Z,0.00
2018-12-30T03:08:21.728Z,0.00
2018-12-30T03:09:21.737Z,0.00
2018-12-30T03:10:21.708Z,0.00
2018-12-30T03:11:21.693Z,0.00
2018-12-30T03:12:21.685Z,0.00
2018-12-30T03:13:21.716Z,0.00
2018-12-30T03:14:21.662Z,0.00
2018-12-30T03:15:21.682Z,0.00
2018-12-30T03:16:21.655Z,0.00
2018-12-30T03:17:21.639Z,0.00
2018-12-30T03:18:21.616Z,0.00
2018-12-30T03:19:21.633Z,0.00
2018-12-30T03:20:21.601Z,0.00
2018-12-30T03:21:21.624Z,0.00
2018-12-30T03:22:21.570Z,0.00
2018-12-30T03:23:21.577Z,0.00
2018-12-30T03:24:21.566Z,0.00
2018-12-30T03:25:21.536Z,0.00
2018-12-30T03:26:21.528Z,0.00
2018-12-30T03:27:21.515Z,0.00
2018-12-30T03:28:21.508Z,0.00
2018-12-30T03:29:21.523Z,0.00
2018-12-30T03:30:21.513Z,0.00
2018-12-30T03:31:21.503Z,0.00
2018-12-30T03:32:21.458Z,0.00
2018-12-30T03:33:21.465Z,0.00
2018-12-30T03:34:21.442Z,0.00
2018-12-30T03:35:21.424Z,0.00
2018-12-30T03:36:21.434Z,0.00
2018-12-30T03:37:21.401Z,0.00
2018-12-30T03:38:21.418Z,0.00
2018-12-30T03:39:21.382Z,0.00
2018-12-30T03:40:21.370Z,0.00
2018-12-30T03:41:21.376Z,0.00
2018-12-30T03:42:21.393Z,0.00
2018-12-30T03:43:21.338Z,0.00
2018-12-30T03:44:21.342Z,0.00
2018-12-30T03:45:21.399Z,0.00
2018-12-30T03:46:21.304Z,0.00
2018-12-30T03:47:21.318Z,0.00
2018-12-30T03:48:21.288Z,0.00
2018-12-30T03:49:21.280Z,0.00
2018-12-30T03:50:21.263Z,0.00
2018-12-30T03:51:21.254Z,0.00
2018-12-30T03:52:21.264Z,0.00
2018-12-30T03:53:21.235Z,0.00
2018-12-30T03:54:21.242Z,0.00
2018-12-30T03:55:21.213Z,0.00
2018-12-30T03:56:21.191Z,0.00
2018-12-30T03:57:21.235Z,0.00
2018-12-30T03:58:21.221Z,0.00
2018-12-30T03:59:21.157Z,0.00
2018-12-30T04:00:21.171Z,0.00
2018-12-30T04:01:21.141Z,0.00
2018-12-30T04:02:21.160Z,0.00
2018-12-30T04:03:21.128Z,0.00
2018-12-30T04:04:21.123Z,0.00
2018-12-30T04:05:21.096Z,0.00
2018-12-30T04:06:21.079Z,0.00
2018-12-30T04:07:21.098Z,0.00
2018-12-30T04:08:21.085Z,0.00
2018-12-30T04:09:21.052Z,0.00
2018-12-30T04:10:21.032Z,0.00
2018-12-30T04:11:21.036Z,0.00
2018-12-30T04:12:21.015Z,0.00
2018-12-30T04:13:21.003Z,0.00
2018-12-30T04:14:21.006Z,0.00
2018-12-30T04:15:20.981Z,0.00
2018-12-30T04:16:21.000Z,0.00
2018-12-30T04:17:20.983Z,0.00
2018-12-30T04:18:20.945Z,0.00
2018-12-30T04:19:20.957Z,0.00
2018-12-30T04:20:20.946Z,0.00
2018-12-30T04:21:20.914Z,0.00
2018-12-30T04:22:20.907Z,0.00
2018-12-30T04:23:20.972Z,0.00
2018-12-30T04:24:20.900Z,0.00
2018-12-30T04:25:20.879Z,0.00
2018-12-30T04:26:20.863Z,0.00
2018-12-30T04:27:20.877Z,0.00
2018-12-30T04:28:20.845Z,0.00
2018-12-30T04:29:20.826Z,0.00
2018-12-30T04:30:20.837Z,0.00
2018-12-30T04:31:20.827Z,0.00
2018-12-30T04:32:20.819Z,0.00
2018-12-30T04:33:20.807Z,0.00
2018-12-30T04:34:20.788Z,0.00
2018-12-30T04:35:20.762Z,0.00
2018-12-30T04:36:20.747Z,0.00
2018-12-30T04:37:20.734Z,0.00
2018-12-30T04:38:20.739Z,0.00
2018-12-30T04:39:20.732Z,0.00
2018-12-30T04:40:20.716Z,0.00
2018-12-30T04:41:20.706Z,0.00
2018-12-30T04:42:20.681Z,0.00
2018-12-30T04:43:20.670Z,0.00
2018-12-30T04:44:20.662Z,0.00
2018-12-30T04:45:20.660Z,0.00
2018-12-30T04:46:20.662Z,0.00
2018-12-30T04:47:20.632Z,0.00
2018-12-30T04:48:20.617Z,0.00
2018-12-30T04:49:20.642Z,0.00
2018-12-30T04:50:20.615Z,0.00
2018-12-30T04:51:20.589Z,0.00
2018-12-30T04:52:25.667Z,0.00
2018-12-30T04:53:21.565Z,0.00
2018-12-30T04:54:20.547Z,0.00
2018-12-30T04:55:20.541Z,0.00
2018-12-30T04:56:20.548Z,0.00
2018-12-30T04:57:20.518Z,0.00
2018-12-30T04:58:20.504Z,0.00
2018-12-30T04:59:20.515Z,0.00
2018-12-30T05:00:20.480Z,0.00
2018-12-30T05:01:20.491Z,0.00
2018-12-30T05:02:20.501Z,0.00
2018-12-30T05:03:20.448Z,0.00
2018-12-30T05:04:20.457Z,0.00
2018-12-30T05:05:20.449Z,0.00
2018-12-30T05:06:20.420Z,0.00
2018-12-30T05:07:20.413Z,0.00
2018-12-30T05:08:20.425Z,0.00
2018-12-30T05:09:20.382Z,0.00
2018-12-30T05:10:20.372Z,0.00
2018-12-30T05:11:20.375Z,0.00
2018-12-30T05:12:20.344Z,0.00
2018-12-30T05:13:20.409Z,0.00
2018-12-30T05:14:20.324Z,0.00
2018-12-30T05:15:20.324Z,0.00
2018-12-30T05:16:20.306Z,0.00
2018-12-30T05:17:20.315Z,0.00
2018-12-30T05:18:20.279Z,0.00
2018-12-30T05:19:20.305Z,0.00
2018-12-30T05:20:20.256Z,0.00
2018-12-30T05:21:20.249Z,0.00
2018-12-30T05:22:20.267Z,0.00
2018-12-30T05:23:20.244Z,0.00
2018-12-30T05:24:20.230Z,0.00
2018-12-30T05:25:20.218Z,0.00
2018-12-30T05:26:20.191Z,0.00
2018-12-30T05:27:20.181Z,0.00
2018-12-30T05:28:20.186Z,0.00
2018-12-30T05:29:20.176Z,0.00
2018-12-30T05:30:20.145Z,0.00
2018-12-30T05:31:20.177Z,0.00
2018-12-30T05:32:20.165Z,0.00
2018-12-30T05:33:20.123Z,0.00
2018-12-30T05:34:20.105Z,0.00
2018-12-30T05:35:20.089Z,0.00
2018-12-30T05:36:20.123Z,0.00
2018-12-30T05:37:20.090Z,0.00
2018-12-30T05:38:20.056Z,0.00
2018-12-30T05:39:20.058Z,0.00
2018-12-30T05:40:20.031Z,0.00
2018-12-30T05:41:20.031Z,0.00
2018-12-30T05:42:20.018Z,0.00
2018-12-30T05:43:20.031Z,0.00
2018-12-30T05:44:19.995Z,0.00
2018-12-30T05:45:19.987Z,0.00
2018-12-30T05:46:19.971Z,0.00
2018-12-30T05:47:19.970Z,0.00
2018-12-30T05:48:19.946Z,0.00
2018-12-30T05:49:19.950Z,0.00
2018-12-30T05:50:19.929Z,0.00
2018-12-30T05:51:19.918Z,0.00
2018-12-30T05:52:19.901Z,0.00
2018-12-30T05:53:19.895Z,0.00
2018-12-30T05:54:19.883Z,0.00
2018-12-30T05:55:19.889Z,0.00
2018-12-30T05:56:19.861Z,0.00
2018-12-30T05:57:19.855Z,0.00
2018-12-30T05:58:19.842Z,0.00
2018-12-30T05:59:19.820Z,0.00
2018-12-30T06:00:19.834Z,0.00
2018-12-30T06:01:19.800Z,0.00
2018-12-30T06:02:19.837Z,0.00
2018-12-30T06:03:19.777Z,0.00
2018-12-30T06:04:19.772Z,0.00
2018-12-30T06:05:19.768Z,0.00
2018-12-30T06:06:19.782Z,0.00
2018-12-30T06:07:19.732Z,0.00
2018-12-30T06:08:19.752Z,0.00
2018-12-30T06:09:19.707Z,0.00
2018-12-30T06:10:19.701Z,0.00
2018-12-30T06:11:19.691Z,0.00
2018-12-30T06:12:19.676Z,0.00
2018-12-30T06:13:19.713Z,0.00
2018-12-30T06:14:19.688Z,0.00
2018-12-30T06:15:19.646Z,0.00
2018-12-30T06:16:19.652Z,0.00
2018-12-30T06:17:19.624Z,0.00
2018-12-30T06:18:19.609Z,0.00
2018-12-30T06:19:19.596Z,0.00
2018-12-30T06:20:19.602Z,0.00
2018-12-30T06:21:19.571Z,0.00
2018-12-30T06:22:19.626Z,0.00
2018-12-30T06:23:19.562Z,0.00
2018-12-30T06:24:19.541Z,0.00
2018-12-30T06:25:19.552Z,0.00
2018-12-30T06:26:19.516Z,0.00
2018-12-30T06:27:19.510Z,0.00
2018-12-30T06:28:19.557Z,0.00
2018-12-30T06:29:19.478Z,0.00
2018-12-30T06:30:19.498Z,0.00
2018-12-30T06:31:19.483Z,0.00
2018-12-30T06:32:19.456Z,0.00
2018-12-30T06:33:19.452Z,0.00
2018-12-30T06:34:19.426Z,0.00
2018-12-30T06:35:19.418Z,0.00
2018-12-30T06:36:19.423Z,0.00
2018-12-30T06:37:19.412Z,0.00
2018-12-30T06:38:19.382Z,0.00
2018-12-30T06:39:19.370Z,0.00
2018-12-30T06:40:19.362Z,0.00
2018-12-30T06:41:19.360Z,0.00
2018-12-30T06:42:19.403Z,0.00
2018-12-30T06:43:19.350Z,0.00
2018-12-30T06:44:19.364Z,0.00
2018-12-30T06:45:19.316Z,0.00
2018-12-30T06:46:19.337Z,0.00
2018-12-30T06:47:19.280Z,0.00
2018-12-30T06:48:19.273Z,0.00
2018-12-30T06:49:19.276Z,0.00
2018-12-30T06:50:19.253Z,0.00
2018-12-30T06:51:19.238Z,0.00
2018-12-30T06:52:19.237Z,0.00
2018-12-30T06:53:19.221Z,0.00
2018-12-30T06:54:19.202Z,0.00
2018-12-30T06:55:19.216Z,0.00
2018-12-30T06:56:19.181Z,0.00
2018-12-30T06:57:19.173Z,0.00
2018-12-30T06:58:19.162Z,0.00
2018-12-30T06:59:19.150Z,0.00
2018-12-30T07:00:19.146Z,0.00
2018-12-30T07:01:19.162Z,0.00
2018-12-30T07:02:19.119Z,0.00
2018-12-30T07:03:19.118Z,0.00
2018-12-30T07:04:19.092Z,0.00
2018-12-30T07:05:19.078Z,0.00
2018-12-30T07:06:19.069Z,0.00
2018-12-30T07:07:19.073Z,0.00
2018-12-30T07:08:19.047Z,0.00
2018-12-30T07:09:19.034Z,0.00
2018-12-30T07:10:19.029Z,0.00
2018-12-30T07:11:19.033Z,0.00
2018-12-30T07:12:19.003Z,0.00
2018-12-30T07:13:19.001Z,4.00
2018-12-30T07:14:19.003Z,4.00
2018-12-30T07:15:18.972Z,0.00
2018-12-30T07:16:18.965Z,0.00
2018-12-30T07:17:18.943Z,0.00
2018-12-30T07:18:18.959Z,4.00
2018-12-30T07:19:18.925Z,0.00
2018-12-30T07:20:18.928Z,0.00
2018-12-30T07:21:18.905Z,0.00
2018-12-30T07:22:18.887Z,0.00
2018-12-30T07:23:18.904Z,0.00
2018-12-30T07:24:18.873Z,0.00
2018-12-30T07:25:18.947Z,0.00
2018-12-30T07:26:18.873Z,0.00
2018-12-30T07:27:18.834Z,0.00
2018-12-30T07:28:18.830Z,4.00
2018-12-30T07:29:18.885Z,4.00
2018-12-30T07:30:18.813Z,4.00
2018-12-30T07:31:18.790Z,4.00
2018-12-30T07:32:18.896Z,4.00
2018-12-30T07:33:18.768Z,4.00
2018-12-30T07:34:18.755Z,0.00
2018-12-30T07:35:18.748Z,4.00
2018-12-30T07:36:18.959Z,8.00
2018-12-30T07:37:18.724Z,8.00
2018-12-30T07:38:18.709Z,8.00
2018-12-30T07:39:18.703Z,8.00
2018-12-30T07:40:18.689Z,8.00
2018-12-30T07:41:18.682Z,12.00
2018-12-30T07:42:18.685Z,8.00
2018-12-30T07:43:18.651Z,12.00
2018-12-30T07:44:18.639Z,12.00
2018-12-30T07:45:18.648Z,12.00
2018-12-30T07:46:18.621Z,16.00
2018-12-30T07:47:18.623Z,16.00
2018-12-30T07:48:18.625Z,20.00
2018-12-30T07:49:18.596Z,16.00
2018-12-30T07:50:18.573Z,20.00
2018-12-30T07:51:18.573Z,20.00
2018-12-30T07:52:18.572Z,20.00
2018-12-30T07:53:18.575Z,24.00
2018-12-30T07:54:18.544Z,20.00
2018-12-30T07:55:18.518Z,24.00
2018-12-30T07:56:18.508Z,24.00
2018-12-30T07:57:18.495Z,32.00
2018-12-30T07:58:18.488Z,28.00
2018-12-30T07:59:18.530Z,44.00
2018-12-30T08:00:18.462Z,40.00
2018-12-30T08:01:18.457Z,52.00
2018-12-30T08:02:18.447Z,44.00
2018-12-30T08:03:18.533Z,44.00
2018-12-30T08:04:18.416Z,40.00
2018-12-30T08:05:18.423Z,36.00
2018-12-30T08:06:18.398Z,36.00
2018-12-30T08:07:18.385Z,28.00
2018-12-30T08:08:18.375Z,36.00
2018-12-30T08:09:18.365Z,32.00
2018-12-30T08:10:18.387Z,36.00
2018-12-30T08:11:18.339Z,36.00
2018-12-30T08:12:18.381Z,36.00
2018-12-30T08:13:18.326Z,40.00
2018-12-30T08:14:18.305Z,36.00
2018-12-30T08:15:18.327Z,40.00
2018-12-30T08:16:18.317Z,32.00
2018-12-30T08:17:18.284Z,44.00
2018-12-30T08:18:18.266Z,44.00
2018-12-30T08:19:18.298Z,52.00
2018-12-30T08:20:18.238Z,60.00
2018-12-30T08:21:18.232Z,76.00
2018-12-30T08:22:18.249Z,112.00
2018-12-30T08:23:21.501Z,132.00
2018-12-30T08:24:18.196Z,200.00
2018-12-30T08:25:18.196Z,188.00
2018-12-30T08:26:18.178Z,244.00
2018-12-30T08:27:18.242Z,236.00
2018-12-30T08:28:25.078Z,288.00
2018-12-30T08:29:19.151Z,320.00
2018-12-30T08:30:25.711Z,364.00
2018-12-30T08:31:25.677Z,408.00
2018-12-30T08:32:26.716Z,392.00
2018-12-30T08:33:26.684Z,460.00
2018-12-30T08:34:25.648Z,420.00
2018-12-30T08:35:25.676Z,552.00
2018-12-30T08:36:25.619Z,584.00
2018-12-30T08:37:18.052Z,716.00
2018-12-30T08:38:25.633Z,760.00
2018-12-30T08:39:28.879Z,940.00
2018-12-30T08:40:25.772Z,1040.00
2018-12-30T08:41:25.592Z,1136.00
2018-12-30T08:42:25.592Z,1560.00
2018-12-30T08:43:25.542Z,1872.00
2018-12-30T08:44:28.051Z,1400.00
2018-12-30T08:45:29.111Z,1640.00
2018-12-30T08:46:25.528Z,3384.00
2018-12-30T08:47:25.501Z,5772.00
2018-12-30T08:48:25.488Z,3884.00
2018-12-30T08:49:26.791Z,1796.00
2018-12-30T08:50:26.823Z,1428.00
2018-12-30T08:51:25.461Z,1684.00
2018-12-30T08:52:25.463Z,3352.00
2018-12-30T08:53:29.337Z,5264.00
2018-12-30T08:54:25.418Z,5256.00
2018-12-30T08:55:25.429Z,3148.00
2018-12-30T08:56:27.527Z,1308.00
2018-12-30T08:57:17.824Z,944.00
2018-12-30T08:58:17.813Z,916.00
2018-12-30T09:00:36.577Z,628.00
2018-12-30T09:01:45.586Z,544.00
2018-12-30T09:02:44.102Z,444.00
2018-12-30T09:03:36.514Z,336.00
2018-12-30T09:04:36.500Z,280.00
2018-12-30T09:05:36.508Z,280.00
2018-12-30T09:06:36.487Z,280.00
2018-12-30T09:07:36.480Z,284.00
2018-12-30T09:08:36.454Z,280.00
2018-12-30T09:09:36.458Z,292.00
2018-12-30T09:10:36.434Z,284.00
2018-12-30T09:11:36.420Z,292.00
2018-12-30T09:12:36.428Z,292.00
2018-12-30T09:13:36.404Z,308.00
2018-12-30T09:14:36.388Z,316.00
2018-12-30T09:15:36.417Z,316.00
2018-12-30T09:16:36.372Z,304.00
2018-12-30T09:17:36.356Z,300.00
2018-12-30T09:18:36.396Z,276.00
2018-12-30T09:19:36.335Z,308.00
2018-12-30T09:20:36.320Z,300.00
2018-12-30T09:21:36.328Z,336.00
2018-12-30T09:22:36.302Z,324.00
2018-12-30T09:23:37.558Z,368.00
2018-12-30T09:24:36.273Z,360.00
2018-12-30T09:25:36.283Z,384.00
2018-12-30T09:26:36.253Z,372.00
2018-12-30T09:27:36.245Z,364.00
2018-12-30T09:28:36.276Z,328.00
2018-12-30T09:29:36.235Z,332.00
2018-12-30T09:30:36.210Z,276.00
2018-12-30T09:31:36.199Z,288.00
2018-12-30T09:32:36.187Z,276.00
2018-12-30T09:33:36.175Z,312.00
2018-12-30T09:34:36.191Z,324.00
2018-12-30T09:35:36.168Z,384.00
2018-12-30T09:36:36.144Z,396.00
2018-12-30T09:37:36.138Z,456.00
2018-12-30T09:38:36.118Z,460.00
2018-12-30T09:39:36.109Z,464.00
2018-12-30T09:40:36.096Z,492.00
2018-12-30T09:41:36.101Z,468.00
2018-12-30T09:42:36.075Z,472.00
2018-12-30T09:43:36.106Z,444.00
2018-12-30T09:44:36.059Z,432.00
2018-12-30T09:45:36.043Z,488.00
2018-12-30T09:46:36.048Z,480.00
2018-12-30T09:47:36.032Z,548.00
2018-12-30T09:48:36.004Z,568.00
2018-12-30T09:49:35.993Z,516.00
2018-12-30T09:50:36.020Z,576.00
2018-12-30T09:51:35.974Z,584.00
2018-12-30T09:52:35.968Z,604.00
2018-12-30T09:53:35.966Z,512.00
2018-12-30T09:54:35.939Z,484.00
2018-12-30T09:55:35.930Z,424.00
2018-12-30T09:56:35.919Z,448.00
2018-12-30T09:57:35.932Z,372.00
2018-12-30T09:58:35.910Z,384.00
2018-12-30T09:59:35.883Z,304.00
2018-12-30T10:00:35.874Z,352.00
2018-12-30T10:01:35.861Z,276.00
2018-12-30T10:02:35.850Z,296.00
2018-12-30T10:03:35.857Z,224.00
2018-12-30T10:04:35.837Z,256.00
2018-12-30T10:05:35.822Z,232.00
2018-12-30T10:06:35.805Z,264.00
2018-12-30T10:07:35.791Z,256.00
2018-12-30T10:08:35.788Z,276.00
2018-12-30T10:09:35.790Z,260.00
2018-12-30T10:10:35.804Z,268.00
2018-12-30T10:11:35.745Z,256.00
2018-12-30T10:12:35.740Z,276.00
2018-12-30T10:13:35.724Z,276.00
2018-12-30T10:14:35.772Z,272.00
2018-12-30T10:15:35.719Z,292.00
2018-12-30T10:16:35.706Z,264.00
2018-12-30T10:17:35.679Z,292.00
2018-12-30T10:18:35.669Z,264.00
2018-12-30T10:19:35.658Z,320.00
2018-12-30T10:20:35.678Z,328.00
2018-12-30T10:21:35.635Z,400.00
2018-12-30T10:22:35.621Z,356.00
2018-12-30T10:23:35.657Z,456.00
2018-12-30T10:24:35.606Z,440.00
2018-12-30T10:25:35.591Z,524.00
2018-12-30T10:26:35.603Z,492.00
2018-12-30T10:27:35.571Z,484.00
2018-12-30T10:28:35.559Z,492.00
2018-12-30T10:29:35.570Z,552.00
2018-12-30T10:30:35.533Z,580.00
2018-12-30T10:31:35.526Z,632.00
2018-12-30T10:32:35.531Z,684.00
2018-12-30T10:33:35.503Z,684.00
2018-12-30T10:34:35.491Z,680.00
2018-12-30T10:35:35.483Z,652.00
2018-12-30T10:36:35.488Z,648.00
2018-12-30T10:37:35.477Z,604.00
2018-12-30T10:38:35.446Z,600.00
2018-12-30T10:39:35.432Z,572.00
2018-12-30T10:40:35.427Z,608.00
2018-12-30T10:41:35.412Z,548.00
2018-12-30T10:42:35.403Z,640.00
2018-12-30T10:43:35.432Z,656.00
2018-12-30T10:44:35.378Z,768.00
2018-12-30T10:45:35.366Z,744.00
2018-12-30T10:46:35.355Z,772.00
2018-12-30T10:47:35.344Z,612.00
2018-12-30T10:48:36.275Z,580.00
2018-12-30T10:49:35.386Z,424.00
2018-12-30T10:50:35.307Z,488.00
2018-12-30T10:51:35.299Z,388.00
2018-12-30T10:52:35.297Z,464.00
2018-12-30T10:53:35.286Z,424.00
2018-12-30T10:54:35.267Z,496.00
2018-12-30T10:55:35.323Z,428.00
2018-12-30T10:56:35.240Z,456.00
2018-12-30T10:57:35.235Z,428.00
2018-12-30T10:58:35.222Z,436.00
2018-12-30T10:59:35.209Z,424.00
2018-12-30T11:00:35.198Z,432.00
2018-12-30T11:01:35.208Z,436.00
2018-12-30T11:02:35.184Z,472.00
2018-12-30T11:03:35.165Z,432.00
2018-12-30T11:04:35.192Z,456.00
2018-12-30T11:05:35.153Z,464.00
2018-12-30T11:06:35.132Z,440.00
2018-12-30T11:07:35.140Z,496.00
2018-12-30T11:08:35.107Z,484.00
2018-12-30T11:09:35.116Z,516.00
2018-12-30T11:10:35.088Z,480.00
2018-12-30T11:11:35.078Z,496.00
2018-12-30T11:12:35.063Z,400.00
2018-12-30T11:13:35.064Z,404.00
2018-12-30T11:14:35.051Z,336.00
2018-12-30T11:15:35.031Z,404.00
2018-12-30T11:16:35.050Z,360.00
2018-12-30T11:17:35.009Z,428.00
2018-12-30T11:18:34.995Z,372.00
2018-12-30T11:19:35.002Z,444.00
2018-12-30T11:20:34.974Z,416.00
2018-12-30T11:21:34.968Z,476.00
2018-12-30T11:22:34.988Z,400.00
2018-12-30T11:23:34.953Z,376.00
2018-12-30T11:24:34.929Z,372.00
2018-12-30T11:25:34.934Z,376.00
2018-12-30T11:26:34.907Z,384.00
2018-12-30T11:27:34.928Z,384.00
2018-12-30T11:28:34.882Z,396.00
2018-12-30T11:29:34.884Z,348.00
2018-12-30T11:30:34.881Z,412.00
2018-12-30T11:31:34.865Z,364.00
2018-12-30T11:32:34.836Z,436.00
2018-12-30T11:33:34.828Z,344.00
2018-12-30T11:34:34.817Z,404.00
2018-12-30T11:35:34.804Z,320.00
2018-12-30T11:36:34.820Z,380.00
2018-12-30T11:37:34.798Z,332.00
2018-12-30T11:38:34.774Z,392.00
2018-12-30T11:39:34.787Z,348.00
2018-12-30T11:40:34.747Z,420.00
2018-12-30T11:41:34.777Z,368.00
2018-12-30T11:42:34.733Z,364.00
2018-12-30T11:43:34.730Z,368.00
2018-12-30T11:44:34.721Z,356.00
2018-12-30T11:45:34.697Z,380.00
2018-12-30T11:46:34.678Z,368.00
2018-12-30T11:47:34.670Z,348.00
2018-12-30T11:48:34.671Z,356.00
2018-12-30T11:49:34.646Z,332.00
2018-12-30T11:50:34.648Z,324.00
2018-12-30T11:51:34.626Z,328.00
2018-12-30T11:52:34.614Z,304.00
2018-12-30T11:53:34.599Z,328.00
2018-12-30T11:54:34.611Z,304.00
2018-12-30T11:55:34.577Z,316.00
2018-12-30T11:56:34.591Z,280.00
2018-12-30T11:57:34.556Z,316.00
2018-12-30T11:58:34.557Z,268.00
2018-12-30T11:59:34.534Z,312.00
2018-12-30T12:00:34.542Z,268.00
2018-12-30T12:01:34.515Z,312.00
2018-12-30T12:02:34.500Z,260.00
2018-12-30T12:03:34.516Z,324.00
2018-12-30T12:04:34.500Z,284.00
2018-12-30T12:05:34.466Z,336.00
2018-12-30T12:06:34.947Z,292.00
2018-12-30T12:07:34.447Z,316.00
2018-12-30T12:08:34.433Z,288.00
2018-12-30T12:09:34.436Z,316.00
2018-12-30T12:10:34.424Z,296.00
2018-12-30T12:11:34.400Z,316.00
2018-12-30T12:12:35.621Z,304.00
2018-12-30T12:13:34.383Z,308.00
2018-12-30T12:14:34.383Z,296.00
2018-12-30T12:15:34.371Z,284.00
2018-12-30T12:16:34.344Z,288.00
2018-12-30T12:17:34.348Z,264.00
2018-12-30T12:18:34.320Z,264.00
2018-12-30T12:19:34.309Z,228.00
2018-12-30T12:20:34.312Z,240.00
2018-12-30T12:21:34.314Z,208.00
2018-12-30T12:22:34.278Z,236.00
2018-12-30T12:23:34.264Z,200.00
2018-12-30T12:24:34.251Z,232.00
2018-12-30T12:25:34.239Z,176.00
2018-12-30T12:26:34.244Z,212.00
2018-12-30T12:27:34.223Z,160.00
2018-12-30T12:28:34.210Z,208.00
2018-12-30T12:29:34.220Z,168.00
2018-12-30T12:30:34.183Z,212.00
2018-12-30T12:31:34.177Z,180.00
2018-12-30T12:32:34.175Z,212.00
2018-12-30T12:33:34.157Z,216.00
2018-12-30T12:34:34.167Z,248.00
2018-12-30T12:35:34.153Z,260.00
2018-12-30T12:36:34.121Z,276.00
2018-12-30T12:37:34.107Z,292.00
2018-12-30T12:38:34.097Z,256.00
2018-12-30T12:39:34.085Z,284.00
2018-12-30T12:40:34.094Z,228.00
2018-12-30T12:41:34.063Z,252.00
2018-12-30T12:42:34.068Z,192.00
2018-12-30T12:43:34.040Z,224.00
2018-12-30T12:44:34.033Z,168.00
2018-12-30T12:45:34.017Z,208.00
2018-12-30T12:46:34.018Z,168.00
2018-12-30T12:47:33.997Z,228.00
2018-12-30T12:48:33.984Z,200.00
2018-12-30T12:49:33.993Z,244.00
2018-12-30T12:50:33.965Z,208.00
2018-12-30T12:51:33.975Z,248.00
2018-12-30T12:52:33.938Z,220.00
2018-12-30T12:53:33.936Z,248.00
2018-12-30T12:54:33.917Z,228.00
2018-12-30T12:55:33.908Z,240.00
2018-12-30T12:56:33.900Z,216.00
2018-12-30T12:57:33.906Z,224.00
2018-12-30T12:58:33.885Z,200.00
2018-12-30T12:59:33.863Z,204.00